Weather reports worldwide

Advertisment
Zugspitze, Germany (10961): temperature & dewpoint: 17.10.2019 05:00:00 - 23.10.2019 05:00:00 (CEST)Zugspitze, Germany (10961): wind speed & gusts: 17.10.2019 05:00:00 - 23.10.2019 05:00:00 (CEST)Zugspitze, Germany (10961): wind direction: 17.10.2019 05:00:00 - 23.10.2019 05:00:00 (CEST)Zugspitze, Germany (10961): visibility: 17.10.2019 05:00:00 - 23.10.2019 05:00:00 (CEST)Zugspitze, Germany (10961): sunshine duration: 17.10.2019 05:00:00 - 23.10.2019 05:00:00 (CEST)
Date & Time tt [°C] td [°C] ff [km/h] ff [kn] fx [km/h] fx [kn] dd vv [km] sd [min]
23.10.2019 05:00:00 6,1 -13,4 46 25 71 38 SSE 75 0
23.10.2019 04:00:00 5,1 -10,4 48 26 78 42 SSE 75 0
23.10.2019 03:00:00 4,6 -8,6 49 26 69 37 SSE 75 0
23.10.2019 02:00:00 3,9 -7,6 41 22 56 30 SSE 75 0
23.10.2019 01:00:00 3,8 -5,8 43 23 55 30 SSE 75 0
23.10.2019 00:00:00 3,0 -3,4 41 22 58 32 SSE 75 0
22.10.2019 23:00:00 3,7 -4,3 44 24 58 31 SSE 75 0
22.10.2019 22:00:00 4,0 -4,3 36 19 50 27 SSE 75 0
22.10.2019 21:00:00 4,1 -3,7 35 19 44 24 SE 75 0
22.10.2019 20:00:00 3,8 -1,6 26 14 34 19 SE 75 0
22.10.2019 19:00:00 4,0 0,1 13 7 27 15 ESE 75 0
22.10.2019 18:00:00 3,5 0,0 22 12 27 15 ESE 75 7
22.10.2019 17:00:00 4,7 0,2 16 9 25 13 SE 72 60
22.10.2019 16:00:00 5,2 -0,6 20 11 23 13 SE 75 60
22.10.2019 15:00:00 5,6 -1,6 19 10 27 15 SSE 72 60
22.10.2019 14:00:00 6,6 -3,6 19 11 30 16 SSE 69 60
22.10.2019 13:00:00 6,5 -4,8 18 10 26 14 SE 75 60
22.10.2019 12:00:00 5,6 -4,3 21 11 23 13 ESE 73 60
22.10.2019 11:00:00 5,4 -4,5 16 9 24 13 SE 73 60
22.10.2019 10:00:00 4,6 -3,3 17 9 28 15 SE 71 39
22.10.2019 09:00:00 3,9 -2,9 18 10 31 17 S 75 44
22.10.2019 08:00:00 4,0 -3,0 24 13 44 24 S 75 4
22.10.2019 07:00:00 3,8 -2,9 31 17 58 32 SSE 75 0
22.10.2019 06:00:00 3,2 -1,2 50 27 67 36 S 75 0
22.10.2019 05:00:00 2,5 -1,1 34 18 45 24 S 75 0
22.10.2019 04:00:00 3,0 -0,8 37 20 46 25 SSE 75 0
22.10.2019 03:00:00 1,9 -0,1 27 15 32 17 SE 69 0
22.10.2019 02:00:00 2,0 -0,3 32 17 50 27 SE 75 0
22.10.2019 01:00:00 1,8 -0,2 29 16 56 31 SE 66 0
22.10.2019 00:00:00 2,1 -0,4 18 10 35 19 ESE 75 0
21.10.2019 23:00:00 2,1 -0,5 19 11 25 13 SE 72 0
21.10.2019 22:00:00 2,7 -0,4 14 7 40 22 ESE 75 0
21.10.2019 21:00:00 2,7 -0,2 27 15 41 22 ESE 74 0
21.10.2019 20:00:00 1,6 1,4 26 14 37 20 ESE 0,3 0
21.10.2019 19:00:00 1,8 1,6 29 16 35 19 ESE 0,1 0
21.10.2019 18:00:00 2,2 1,9 27 15 36 20 ESE 0,1 5
21.10.2019 17:00:00 2,8 1,5 22 12 32 18 ESE 2,6 54
21.10.2019 16:00:00 3,3 1,2 19 11 32 17 SE 71 18
21.10.2019 15:00:00 3,0 1,6 21 12 36 19 ESE 3,9 20
21.10.2019 14:00:00 3,4 0,7 27 14 50 27 SE 75 59
21.10.2019 13:00:00 2,9 0,8 36 20 53 29 SE 71 40
21.10.2019 12:00:00 3,8 0,5 27 15 76 41 SE 75 41
21.10.2019 11:00:00 2,0 0,8 34 19 55 30 SE 39 22
21.10.2019 10:00:00 1,9 0,6 33 18 51 28 ESE 48 0
21.10.2019 09:00:00 1,5 1,0 22 12 34 18 ESE 0,2 0
21.10.2019 08:00:00 2,0 0,1 24 13 40 22 SE 75 0
21.10.2019 07:00:00 1,7 0,2 24 13 61 33 SSE 72 0
21.10.2019 06:00:00 1,9 -0,1 45 25 64 35 S 75 0
21.10.2019 05:00:00 2,1 0,0 37 20 61 33 SSE 71 0
21.10.2019 04:00:00 1,9 -0,1 34 18 62 34 SSE 75 0
21.10.2019 03:00:00 1,8 -0,1 44 24 74 40 SSE 75 0
21.10.2019 02:00:00 2,0 -0,4 38 21 78 42 SE 75 0
21.10.2019 01:00:00 1,9 0,1 50 27 85 46 SSE 63 0
21.10.2019 00:00:00 2,2 0,3 43 23 89 48 SSE 75 0
20.10.2019 23:00:00 2,6 -0,1 37 20 95 52 SSE 75 0
20.10.2019 22:00:00 1,7 -0,2 53 29 82 45 SSE 72 0
20.10.2019 21:00:00 1,8 -0,3 45 24 80 43 SE 70 0
20.10.2019 20:00:00 1,7 -0,6 46 25 84 46 SSE 59 0
20.10.2019 19:00:00 1,3 -0,5 59 32 80 43 SSE 74 0
20.10.2019 18:00:00 1,4 -0,7 35 19 65 35 SE 75 0
20.10.2019 17:00:00 1,4 -0,9 45 25 72 39 SSE 73 0
20.10.2019 16:00:00 1,0 -0,6 46 25 73 39 SE 62 0
20.10.2019 15:00:00 1,1 -0,8 52 28 77 42 SE 75 0
20.10.2019 14:00:00 1,5 -1,1 59 32 85 46 SSE 75 0
20.10.2019 13:00:00 1,3 -1,4 60 33 82 44 SSE 75 1
20.10.2019 12:00:00 1,2 -1,9 55 30 79 43 SSE 75 7
20.10.2019 11:00:00 1,0 -1,9 41 22 76 41 SSE 71 14
20.10.2019 10:00:00 0,8 -2,0 45 24 74 40 SE 75 23
20.10.2019 09:00:00 0,6 -1,9 51 27 79 42 SE 75 0
20.10.2019 08:00:00 0,4 -1,3 52 28 74 40 SE 75 0
20.10.2019 07:00:00 0,5 -1,0 49 26 71 38 SE 75 0
20.10.2019 06:00:00 0,2 -1,1 47 25 73 40 SE 75 0
20.10.2019 05:00:00 0,4 -1,0 42 23 67 36 SE 75 0
20.10.2019 04:00:00 0,1 -0,6 43 23 68 37 SE 1,2 0
20.10.2019 03:00:00 0,3 -0,7 47 26 74 40 SSE 75 0
20.10.2019 02:00:00 0,5 -0,9 44 24 69 38 SSE 75 0
20.10.2019 01:00:00 0,6 -1,4 45 24 74 40 SSE 75 0
20.10.2019 00:00:00 0,3 -1,6 40 22 79 43 SE 75 0
19.10.2019 23:00:00 0,8 -2,2 40 22 77 42 SE 75 0
19.10.2019 22:00:00 0,5 -2,4 51 28 85 46 SSE 75 0
19.10.2019 21:00:00 0,1 -2,0 56 30 80 43 SSE 75 0
19.10.2019 20:00:00 -0,3 -0,9 50 27 70 38 SSE 0,2 0
19.10.2019 19:00:00 -0,1 -0,8 41 22 66 35 SE 75 7
19.10.2019 18:00:00 0,2 -0,7 47 25 70 38 SSE 0,4 35
19.10.2019 17:00:00 0,2 -0,4 41 22 75 41 SSE 0,2 53
19.10.2019 16:00:00 0,3 0,0 46 25 65 35 SE - 12
19.10.2019 15:00:00 0,1 -0,2 34 18 51 28 SE - 18
19.10.2019 14:00:00 -0,1 -0,5 29 16 41 22 SE - 0
19.10.2019 13:00:00 -0,3 -1,0 34 18 49 26 SSE 0,1 0
19.10.2019 12:00:00 -0,4 -1,3 30 16 51 27 S 0,7 0
19.10.2019 11:00:00 -0,3 -2,0 40 21 66 35 SSE 69 36
19.10.2019 10:00:00 -0,2 -2,6 51 27 65 35 SSE 75 3
19.10.2019 09:00:00 -0,2 -3,2 46 25 85 46 SSE 75 31
19.10.2019 08:00:00 -1,1 -3,2 53 28 78 42 SSE 66 0
19.10.2019 07:00:00 -1,8 -3,9 50 27 95 51 SSE 65 0
19.10.2019 06:00:00 -2,0 -2,5 52 28 65 35 SSE 0,1 0
19.10.2019 05:00:00 -2,3 -2,7 33 18 46 25 SE 0,1 0
19.10.2019 04:00:00 -2,1 -3,1 36 19 58 31 SSE 30 0
19.10.2019 03:00:00 -1,9 -3,2 31 17 48 26 SE 57 0
19.10.2019 02:00:00 -2,2 -3,0 32 17 44 24 SSE 24 0
19.10.2019 01:00:00 -1,8 -2,8 39 21 46 25 SSE 47 0
19.10.2019 00:00:00 -1,8 -2,4 19 10 41 22 SE 1,5 0
18.10.2019 23:00:00 -1,7 -2,4 33 18 44 24 SE 55 0
18.10.2019 22:00:00 -1,4 -1,7 36 19 43 23 SE 0,1 0
18.10.2019 21:00:00 -1,0 -1,1 27 14 33 18 SE - 0
18.10.2019 20:00:00 -1,3 -1,8 27 14 36 19 SSE 0,1 0
18.10.2019 19:00:00 -1,0 -2,2 26 14 34 18 S 42 0
18.10.2019 18:00:00 -0,3 -2,5 16 9 34 18 SSE 75 11
18.10.2019 17:00:00 0,0 -2,6 16 8 36 19 S 75 0
18.10.2019 16:00:00 -0,2 -2,1 19 10 36 19 SE 75 36
18.10.2019 15:00:00 -0,1 -2,3 26 14 45 25 S 65 17
18.10.2019 14:00:00 0,4 -1,3 16 8 36 19 SE 0,1 37
18.10.2019 13:00:00 0,2 -1,8 21 12 35 19 SE 24 58
18.10.2019 12:00:00 -0,3 -2,6 22 12 32 17 SE 75 60
18.10.2019 11:00:00 -0,2 -1,8 21 11 23 13 SE 72 42
18.10.2019 10:00:00 -0,6 -1,9 13 7 23 12 S 0,3 29
18.10.2019 09:00:00 -1,2 -1,6 17 9 21 11 WSW 0,2 0
18.10.2019 08:00:00 -1,3 -1,5 12 6 24 13 WSW 0,1 0
18.10.2019 07:00:00 -1,5 -1,8 12 7 32 17 WNW - 0
18.10.2019 06:00:00 -1,1 -1,4 16 9 35 19 WSW 0,1 0
18.10.2019 05:00:00 -1,1 -1,4 20 11 36 19 WSW 0,1 0
18.10.2019 04:00:00 -0,4 -2,9 20 11 43 23 WSW 75 0
18.10.2019 03:00:00 -0,2 -2,8 25 13 32 17 S 75 0
18.10.2019 02:00:00 -1,1 -2,7 18 10 24 13 SE 73 0
18.10.2019 01:00:00 -0,8 -3,0 19 10 22 12 SSE 75 0
18.10.2019 00:00:00 -0,6 -3,0 13 7 18 10 SSE 75 0
17.10.2019 23:00:00 0,3 -3,2 10 5 12 6 S 75 0
17.10.2019 22:00:00 0,6 -3,2 10 5 21 11 SW 75 0
17.10.2019 21:00:00 0,7 -3,2 15 8 22 12 SW 75 0
17.10.2019 20:00:00 1,4 -3,7 16 9 32 17 SW 75 0
17.10.2019 19:00:00 1,1 -5,2 22 12 36 19 SW 75 0
17.10.2019 18:00:00 1,8 -5,3 22 12 34 18 S 75 54
17.10.2019 17:00:00 2,8 -4,8 12 7 18 10 SSE 74 60
17.10.2019 16:00:00 4,7 -5,5 9 5 15 8 SSW 60 60
17.10.2019 15:00:00 4,0 -7,5 8 5 15 8 SW 67 60
17.10.2019 14:00:00 4,5 -6,9 6 4 16 9 S 61 60
17.10.2019 13:00:00 4,4 -6,4 7 4 16 9 S 75 60
17.10.2019 12:00:00 4,2 -7,4 7 4 11 6 SSE 75 60
17.10.2019 11:00:00 3,2 -11,2 3 2 8 5 WNW 75 60
17.10.2019 10:00:00 2,2 -10,0 4 2 16 9 SE 75 59
17.10.2019 09:00:00 -0,5 -7,9 13 7 16 8 SE 75 45
17.10.2019 08:00:00 -0,4 -6,8 9 5 19 11 W 75 6
17.10.2019 07:00:00 0,1 -7,4 15 8 21 11 W 75 0
17.10.2019 06:00:00 -0,2 -8,2 18 10 37 20 WSW 75 0
17.10.2019 05:00:00 -0,2 -7,9 14 8 22 12 SSW 75 0

tt = temperature
td = dewpoint
ff = wind speed
fx = gusts
dd = wind direction
vv = visibility
sd = sunshine duration

Next stations